sim
Sign-in with your pilot id or email,
or register
Callsign
Passwort

Schedule Details

Flight Number: DLH2447
Departure: Copenhagen Airport (EKCH) at 05:00
Arrival: Munich Airport (EDDM) at 06:35
Route: Lufthansa Passenger Schedule. Enter filed route here before submitting Pirep.

Weather Information
Getting current METAR information for EKCH 190220Z AUTO 28004KT 9999 NCD 08/07 Q1026 NOSIG
Getting current METAR information for EDDM 190220Z VRB02KT CAVOK 05/03 Q1021 NOSIG

Schedule Frequency

Route Map